createdAt,value
2018-05-07T00:00:12.509Z,99.90
2018-05-07T00:02:40.059Z,99.90
2018-05-07T00:05:07.605Z,99.90
2018-05-07T00:07:35.136Z,99.90
2018-05-07T00:10:02.657Z,99.90
2018-05-07T00:12:30.956Z,99.90
2018-05-07T00:14:59.246Z,99.90
2018-05-07T00:17:27.551Z,99.90
2018-05-07T00:19:55.069Z,99.90
2018-05-07T00:22:23.368Z,99.90
2018-05-07T00:24:51.649Z,99.90
2018-05-07T00:27:19.949Z,99.90
2018-05-07T00:29:47.468Z,99.90
2018-05-07T00:32:15.007Z,99.90
2018-05-07T00:34:42.539Z,99.90
2018-05-07T00:37:10.101Z,99.90
2018-05-07T00:39:37.621Z,99.90
2018-05-07T00:42:05.161Z,99.90
2018-05-07T00:44:32.682Z,99.90
2018-05-07T00:47:00.236Z,99.90
2018-05-07T00:49:27.761Z,99.90
2018-05-07T00:51:55.283Z,99.90
2018-05-07T00:54:22.817Z,99.90
2018-05-07T00:56:50.412Z,99.90
2018-05-07T00:59:17.948Z,99.90
2018-05-07T01:01:45.469Z,99.90
2018-05-07T01:04:13.889Z,99.90
2018-05-07T01:06:41.412Z,99.90
2018-05-07T01:09:10.460Z,99.90
2018-05-07T01:11:37.976Z,99.90
2018-05-07T01:14:05.510Z,99.90
2018-05-07T01:16:33.025Z,99.90
2018-05-07T01:19:01.325Z,99.90
2018-05-07T01:21:28.840Z,99.90
2018-05-07T01:23:56.375Z,99.90
2018-05-07T01:26:23.889Z,99.90
2018-05-07T01:28:52.201Z,99.90
2018-05-07T01:31:19.719Z,99.90
2018-05-07T01:33:48.000Z,99.90
2018-05-07T01:36:16.301Z,99.90
2018-05-07T01:38:43.816Z,99.90
2018-05-07T01:41:13.321Z,99.90
2018-05-07T01:43:40.860Z,99.90
2018-05-07T01:46:08.397Z,99.90
2018-05-07T01:48:35.913Z,99.90
2018-05-07T01:51:03.453Z,99.90
2018-05-07T01:53:30.969Z,99.90
2018-05-07T01:55:58.499Z,99.90
2018-05-07T01:58:27.516Z,99.90
2018-05-07T02:00:55.812Z,99.90
2018-05-07T02:03:23.393Z,99.90
2018-05-07T02:05:50.933Z,99.90
2018-05-07T02:08:18.444Z,99.90
2018-05-07T02:10:47.274Z,99.90
2018-05-07T02:13:15.576Z,99.90
2018-05-07T02:15:43.089Z,99.90
2018-05-07T02:18:10.620Z,99.90
2018-05-07T02:20:38.173Z,99.90
2018-05-07T02:23:05.711Z,99.90
2018-05-07T02:25:33.989Z,99.90
2018-05-07T02:28:02.293Z,99.90
2018-05-07T02:30:29.817Z,99.90
2018-05-07T02:32:57.354Z,99.90
2018-05-07T02:35:24.876Z,99.90
2018-05-07T02:37:52.424Z,99.90
2018-05-07T02:40:20.058Z,99.90
2018-05-07T02:42:48.346Z,99.90
2018-05-07T02:45:16.646Z,99.90
2018-05-07T02:47:44.223Z,99.90
2018-05-07T02:50:11.753Z,99.90
2018-05-07T02:52:40.035Z,99.90
2018-05-07T02:55:08.333Z,99.90
2018-05-07T02:57:35.850Z,99.90
2018-05-07T03:00:03.397Z,99.90
2018-05-07T03:02:30.921Z,99.90
2018-05-07T03:04:58.467Z,99.90
2018-05-07T03:07:25.989Z,99.90
2018-05-07T03:09:53.530Z,99.90
2018-05-07T03:12:21.055Z,99.90
2018-05-07T03:14:48.589Z,99.90
2018-05-07T03:17:16.097Z,99.90
2018-05-07T03:19:43.637Z,99.90
2018-05-07T03:22:11.161Z,99.90
2018-05-07T03:24:39.523Z,99.90
2018-05-07T03:27:07.047Z,99.90
2018-05-07T03:29:34.633Z,99.90
2018-05-07T03:32:02.175Z,99.90
2018-05-07T03:34:29.694Z,99.90
2018-05-07T03:36:58.006Z,99.90
2018-05-07T03:39:25.521Z,99.90
2018-05-07T03:41:53.057Z,99.90
2018-05-07T03:44:20.568Z,99.90
2018-05-07T03:46:48.867Z,99.90
2018-05-07T03:49:16.386Z,99.90
2018-05-07T03:51:43.923Z,99.90
2018-05-07T03:54:11.444Z,99.90
2018-05-07T03:56:39.025Z,99.90
2018-05-07T03:59:07.170Z,99.90
2018-05-07T04:01:35.461Z,99.90
2018-05-07T04:04:03.004Z,99.90
2018-05-07T04:06:30.607Z,99.90
2018-05-07T04:08:58.167Z,99.90
2018-05-07T04:11:25.689Z,99.90
2018-05-07T04:13:54.214Z,99.90
2018-05-07T04:19:29.035Z,99.90
2018-05-07T04:24:53.756Z,99.90
2018-05-07T04:27:22.039Z,99.90
2018-05-07T04:29:50.344Z,99.90
2018-05-07T04:32:18.905Z,99.90
2018-05-07T04:34:47.212Z,99.90
2018-05-07T04:37:14.730Z,99.90
2018-05-07T04:39:43.037Z,99.90
2018-05-07T04:42:10.614Z,99.90
2018-05-07T04:44:38.152Z,99.90
2018-05-07T04:47:06.438Z,99.90
2018-05-07T04:49:33.981Z,99.90
2018-05-07T04:52:02.285Z,99.90
2018-05-07T04:54:29.857Z,99.90
2018-05-07T04:56:57.378Z,99.90
2018-05-07T04:59:25.696Z,99.90
2018-05-07T05:01:53.216Z,99.90
2018-05-07T05:04:21.524Z,94.60
2018-05-07T05:06:49.044Z,94.60
2018-05-07T05:09:16.581Z,89.90
2018-05-07T05:11:44.104Z,84.50
2018-05-07T05:14:11.641Z,78.90
2018-05-07T05:16:39.924Z,70.10
2018-05-07T05:19:08.257Z,67.60
2018-05-07T05:21:35.803Z,67.50
2018-05-07T05:24:03.379Z,68.40
2018-05-07T05:26:30.911Z,66.90
2018-05-07T05:28:59.188Z,64.80
2018-05-07T05:31:27.492Z,61.70
2018-05-07T05:33:55.013Z,61.50
2018-05-07T05:36:23.316Z,56.60
2018-05-07T05:38:50.840Z,56.60
2018-05-07T05:41:18.385Z,56.60
2018-05-07T05:43:46.709Z,53.40
2018-05-07T05:46:14.224Z,53.40
2018-05-07T05:48:41.744Z,52.10
2018-05-07T05:51:09.275Z,53.10
2018-05-07T05:53:36.800Z,52.60
2018-05-07T05:56:04.342Z,54.40
2018-05-07T05:58:31.864Z,55.00
2018-05-07T06:00:59.387Z,53.90
2018-05-07T06:03:26.933Z,54.20
2018-05-07T06:05:54.496Z,54.80
2018-05-07T06:08:22.036Z,54.70
2018-05-07T06:10:49.557Z,54.60
2018-05-07T06:13:17.105Z,54.90
2018-05-07T06:15:45.379Z,54.60
2018-05-07T06:18:12.917Z,57.20
2018-05-07T06:20:40.436Z,55.80
2018-05-07T06:23:08.508Z,52.70
2018-05-07T06:25:36.023Z,54.30
2018-05-07T06:28:03.566Z,53.20
2018-05-07T06:30:31.092Z,54.40
2018-05-07T06:32:58.637Z,54.00
2018-05-07T06:35:26.155Z,54.40
2018-05-07T06:37:53.689Z,55.10
2018-05-07T06:40:21.204Z,53.90
2018-05-07T06:42:48.758Z,54.30
2018-05-07T06:45:16.288Z,54.90
2018-05-07T06:47:43.820Z,57.00
2018-05-07T06:50:11.356Z,55.60
2018-05-07T06:52:38.868Z,56.40
2018-05-07T06:55:07.173Z,56.40
2018-05-07T06:57:34.688Z,56.40
2018-05-07T07:00:02.220Z,56.20
2018-05-07T07:02:29.820Z,56.60
2018-05-07T07:04:57.308Z,57.60
2018-05-07T07:07:25.709Z,58.20
2018-05-07T07:09:53.173Z,58.20
2018-05-07T07:12:20.687Z,58.80
2018-05-07T07:14:48.225Z,58.80
2018-05-07T07:17:16.350Z,57.70
2018-05-07T07:19:44.656Z,59.30
2018-05-07T07:22:12.176Z,59.30
2018-05-07T07:24:39.717Z,59.80
2018-05-07T07:27:07.229Z,60.20
2018-05-07T07:29:34.745Z,60.80
2018-05-07T07:32:02.979Z,57.70
2018-05-07T07:34:30.496Z,59.70
2018-05-07T07:36:58.038Z,57.50
2018-05-07T07:39:25.622Z,58.20
2018-05-07T07:41:53.113Z,56.70
2018-05-07T07:44:20.628Z,57.20
2018-05-07T07:46:48.211Z,58.40
2018-05-07T07:49:15.697Z,57.70
2018-05-07T07:51:43.227Z,58.10
2018-05-07T07:54:10.753Z,58.00
2018-05-07T07:56:38.283Z,58.40
2018-05-07T07:59:06.580Z,59.80
2018-05-07T08:01:34.121Z,59.80
2018-05-07T08:04:02.409Z,59.30
2018-05-07T08:06:29.953Z,59.30
2018-05-07T08:08:58.234Z,58.40
2018-05-07T08:11:26.548Z,57.40
2018-05-07T08:13:54.073Z,57.40
2018-05-07T08:16:22.366Z,57.50
2018-05-07T08:18:49.901Z,57.40
2018-05-07T08:21:17.425Z,59.20
2018-05-07T08:23:46.123Z,57.50
2018-05-07T08:26:13.640Z,57.20
2018-05-07T08:28:41.949Z,56.00
2018-05-07T08:31:09.465Z,56.00
2018-05-07T08:33:37.005Z,56.10
2018-05-07T08:36:04.524Z,55.30
2018-05-07T08:38:32.073Z,56.50
2018-05-07T08:41:00.372Z,54.90
2018-05-07T08:43:27.895Z,54.90
2018-05-07T08:45:55.428Z,53.10
2018-05-07T08:48:22.968Z,54.50
2018-05-07T08:50:50.530Z,54.50
2018-05-07T08:53:18.112Z,54.90
2018-05-07T08:55:45.632Z,54.30
2018-05-07T08:58:13.929Z,52.40
2018-05-07T09:00:41.449Z,52.50
2018-05-07T09:03:10.495Z,54.20
2018-05-07T09:05:38.011Z,54.20
2018-05-07T09:08:06.354Z,55.80
2018-05-07T09:10:33.861Z,55.80
2018-05-07T09:13:02.176Z,54.10
2018-05-07T09:15:29.696Z,54.00
2018-05-07T09:17:57.232Z,53.70
2018-05-07T09:20:24.755Z,57.90
2018-05-07T09:22:52.294Z,56.10
2018-05-07T09:25:19.815Z,54.40
2018-05-07T09:27:47.348Z,51.60
2018-05-07T09:30:14.865Z,52.60
2018-05-07T09:32:42.400Z,51.70
2018-05-07T09:35:09.955Z,55.40
2018-05-07T09:37:38.336Z,53.50
2018-05-07T09:40:06.082Z,54.30
2018-05-07T09:42:34.387Z,51.40
2018-05-07T09:45:01.930Z,51.40
2018-05-07T09:47:29.456Z,50.30
2018-05-07T09:49:56.988Z,49.40
2018-05-07T09:52:24.514Z,49.20
2018-05-07T09:54:52.813Z,52.40
2018-05-07T09:57:20.332Z,52.40
2018-05-07T09:59:47.871Z,51.40
2018-05-07T10:02:15.389Z,50.40
2018-05-07T10:04:42.968Z,50.30
2018-05-07T10:07:10.484Z,51.10
2018-05-07T10:09:38.016Z,52.30
2018-05-07T10:12:05.533Z,51.70
2018-05-07T10:14:33.850Z,47.60
2018-05-07T10:17:01.376Z,47.70
2018-05-07T10:19:28.921Z,51.20
2018-05-07T10:21:57.224Z,49.70
2018-05-07T10:24:24.753Z,49.10
2018-05-07T10:26:52.285Z,49.40
2018-05-07T10:29:19.797Z,49.30
2018-05-07T10:31:48.098Z,50.40
2018-05-07T10:34:15.612Z,50.40
2018-05-07T10:36:43.159Z,48.10
2018-05-07T10:39:10.672Z,47.40
2018-05-07T10:41:38.978Z,52.00
2018-05-07T10:44:06.499Z,52.00
2018-05-07T10:46:34.816Z,50.40
2018-05-07T10:49:02.442Z,50.40
2018-05-07T10:51:29.961Z,49.10
2018-05-07T10:53:57.489Z,47.60
2018-05-07T10:56:25.799Z,51.50
2018-05-07T10:58:53.341Z,51.40
2018-05-07T11:01:20.869Z,50.00
2018-05-07T11:03:48.485Z,49.60
2018-05-07T11:06:16.006Z,47.60
2018-05-07T11:08:44.313Z,48.60
2018-05-07T11:11:11.893Z,48.60
2018-05-07T11:13:39.455Z,47.40
2018-05-07T11:16:06.980Z,47.40
2018-05-07T11:18:35.286Z,50.40
2018-05-07T11:21:02.812Z,50.40
2018-05-07T11:23:30.357Z,47.80
2018-05-07T11:25:57.875Z,49.10
2018-05-07T11:28:25.416Z,47.50
2018-05-07T11:30:52.937Z,48.90
2018-05-07T11:33:20.473Z,48.40
2018-05-07T11:35:48.056Z,50.00
2018-05-07T11:38:15.576Z,48.60
2018-05-07T11:40:43.878Z,48.60
2018-05-07T11:43:11.400Z,48.60
2018-05-07T11:45:39.717Z,49.00
2018-05-07T11:48:07.776Z,49.00
2018-05-07T11:50:36.081Z,45.10
2018-05-07T11:53:03.652Z,45.00
2018-05-07T11:55:31.198Z,48.40
2018-05-07T11:57:58.786Z,48.20
2018-05-07T12:00:26.319Z,43.80
2018-05-07T12:02:54.600Z,49.80
2018-05-07T12:05:22.187Z,49.70
2018-05-07T12:07:49.708Z,47.40
2018-05-07T12:10:18.172Z,48.10
2018-05-07T12:12:45.698Z,48.00
2018-05-07T12:15:13.236Z,47.10
2018-05-07T12:17:41.520Z,48.30
2018-05-07T12:20:09.840Z,47.90
2018-05-07T12:22:37.353Z,48.00
2018-05-07T12:25:05.642Z,45.20
2018-05-07T12:27:33.944Z,49.30
2018-05-07T12:30:01.464Z,49.30
2018-05-07T12:32:29.004Z,44.50
2018-05-07T12:34:56.520Z,44.80
2018-05-07T12:37:24.819Z,48.50
2018-05-07T12:39:52.400Z,48.50
2018-05-07T12:42:19.968Z,48.10
2018-05-07T12:44:47.486Z,48.30
2018-05-07T12:47:15.792Z,44.80
2018-05-07T12:49:43.318Z,44.90
2018-05-07T12:52:10.856Z,44.40
2018-05-07T12:54:38.375Z,47.50
2018-05-07T12:57:05.927Z,46.80
2018-05-07T12:59:35.108Z,45.50
2018-05-07T13:02:02.641Z,45.40
2018-05-07T13:04:30.160Z,41.10
2018-05-07T13:06:58.577Z,47.10
2018-05-07T13:09:26.101Z,46.50
2018-05-07T13:11:54.389Z,46.10
2018-05-07T13:14:22.691Z,44.30
2018-05-07T13:16:50.216Z,44.30
2018-05-07T13:19:18.524Z,48.30
2018-05-07T13:21:46.036Z,48.30
2018-05-07T13:24:13.565Z,47.70
2018-05-07T13:26:41.084Z,44.80
2018-05-07T13:29:08.626Z,44.70
2018-05-07T13:31:36.152Z,44.90
2018-05-07T13:34:03.716Z,47.60
2018-05-07T13:36:31.238Z,44.30
2018-05-07T13:38:58.783Z,42.40
2018-05-07T13:41:26.307Z,44.50
2018-05-07T13:43:53.853Z,44.40
2018-05-07T13:46:22.137Z,44.50
2018-05-07T13:48:50.456Z,46.20
2018-05-07T13:51:17.990Z,46.20
2018-05-07T13:53:46.733Z,46.00
2018-05-07T13:56:14.276Z,42.20
2018-05-07T13:58:41.795Z,43.80
2018-05-07T14:01:09.334Z,39.80
2018-05-07T14:03:37.620Z,40.30
2018-05-07T14:06:05.926Z,41.80
2018-05-07T14:08:33.509Z,42.00
2018-05-07T14:11:01.772Z,45.20
2018-05-07T14:13:29.293Z,45.10
2018-05-07T14:15:56.832Z,42.50
2018-05-07T14:18:24.355Z,41.10
2018-05-07T14:20:51.897Z,42.20
2018-05-07T14:23:20.180Z,41.30
2018-05-07T14:25:48.485Z,42.50
2018-05-07T14:28:16.009Z,42.50
2018-05-07T14:30:44.396Z,45.30
2018-05-07T14:33:11.917Z,44.20
2018-05-07T14:35:39.465Z,44.90
2018-05-07T14:38:06.981Z,45.50
2018-05-07T14:40:35.312Z,40.40
2018-05-07T14:43:02.851Z,40.60
2018-05-07T14:45:31.137Z,43.30
2018-05-07T14:47:58.716Z,43.30
2018-05-07T14:50:26.280Z,41.30
2018-05-07T14:52:53.846Z,40.00
2018-05-07T14:55:23.079Z,40.90
2018-05-07T14:57:50.620Z,38.80
2018-05-07T15:00:18.128Z,39.80
2018-05-07T15:02:46.438Z,41.30
2018-05-07T15:05:15.821Z,41.30
2018-05-07T15:07:44.120Z,42.50
2018-05-07T15:10:11.641Z,42.50
2018-05-07T15:12:39.175Z,41.40
2018-05-07T15:15:06.698Z,41.90
2018-05-07T15:17:34.217Z,41.90
2018-05-07T15:20:01.757Z,39.70
2018-05-07T15:22:29.278Z,38.30
2018-05-07T15:24:57.580Z,40.20
2018-05-07T15:27:25.153Z,40.30
2018-05-07T15:29:52.692Z,43.60
2018-05-07T15:32:20.977Z,41.20
2018-05-07T15:34:48.514Z,41.30
2018-05-07T15:37:16.030Z,41.40
2018-05-07T15:39:43.564Z,43.40
2018-05-07T15:42:11.079Z,44.90
2018-05-07T15:44:38.621Z,44.10
2018-05-07T15:47:06.164Z,38.00
2018-05-07T15:49:33.705Z,38.20
2018-05-07T15:52:01.236Z,44.30
2018-05-07T15:54:28.777Z,43.60
2018-05-07T15:56:56.312Z,42.50
2018-05-07T15:59:23.865Z,45.30
2018-05-07T16:01:51.386Z,43.80
2018-05-07T16:04:18.904Z,46.40
2018-05-07T16:06:46.441Z,43.40
2018-05-07T16:09:13.955Z,46.80
2018-05-07T16:11:41.585Z,46.90
2018-05-07T16:14:09.107Z,45.50
2018-05-07T16:16:38.712Z,44.50
2018-05-07T16:19:06.889Z,44.60
2018-05-07T16:21:34.499Z,46.20
2018-05-07T16:24:02.017Z,46.60
2018-05-07T16:26:30.419Z,45.20
2018-05-07T16:28:57.905Z,45.40
2018-05-07T16:31:25.444Z,46.50
2018-05-07T16:33:52.968Z,46.50
2018-05-07T16:36:20.517Z,47.40
2018-05-07T16:38:48.032Z,50.40
2018-05-07T16:41:15.548Z,48.60
2018-05-07T16:43:43.089Z,50.10
2018-05-07T16:46:10.653Z,47.90
2018-05-07T16:48:38.262Z,48.40
2018-05-07T16:51:05.737Z,47.80
2018-05-07T16:53:34.043Z,47.20
2018-05-07T16:56:01.613Z,47.20
2018-05-07T16:58:29.149Z,45.90
2018-05-07T17:00:57.460Z,45.60
2018-05-07T17:03:25.001Z,45.50
2018-05-07T17:05:52.587Z,46.60
2018-05-07T17:08:20.196Z,46.60
2018-05-07T17:10:47.660Z,46.90
2018-05-07T17:13:15.289Z,47.50
2018-05-07T17:15:42.724Z,47.40
2018-05-07T17:18:10.269Z,47.80
2018-05-07T17:20:37.800Z,47.70
2018-05-07T17:23:06.109Z,49.40
2018-05-07T17:25:34.388Z,48.70
2018-05-07T17:28:02.679Z,48.30
2018-05-07T17:30:30.212Z,48.30
2018-05-07T17:32:58.457Z,48.40
2018-05-07T17:35:25.992Z,48.20
2018-05-07T17:37:53.512Z,50.10
2018-05-07T17:40:21.052Z,49.00
2018-05-07T17:42:48.573Z,50.40
2018-05-07T17:45:31.748Z,48.40
2018-05-07T17:50:57.689Z,49.60
2018-05-07T17:53:25.200Z,52.10
2018-05-07T17:55:53.505Z,53.70
2018-05-07T17:58:21.020Z,53.70
2018-05-07T18:00:48.565Z,53.70
2018-05-07T18:03:16.079Z,54.70
2018-05-07T18:05:43.625Z,55.50
2018-05-07T18:08:11.932Z,55.60
2018-05-07T18:10:39.478Z,55.60
2018-05-07T18:13:07.005Z,56.00
2018-05-07T18:15:34.620Z,57.60
2018-05-07T18:18:02.147Z,57.50
2018-05-07T18:20:30.461Z,59.60
2018-05-07T18:22:57.976Z,59.50
2018-05-07T18:25:26.260Z,59.80
2018-05-07T18:27:54.558Z,62.10
2018-05-07T18:30:22.076Z,61.30
2018-05-07T18:32:49.616Z,61.00
2018-05-07T18:35:17.136Z,62.30
2018-05-07T18:37:44.830Z,61.90
2018-05-07T18:40:12.349Z,61.00
2018-05-07T18:42:40.651Z,64.30
2018-05-07T18:45:08.164Z,63.30
2018-05-07T18:47:35.707Z,63.90
2018-05-07T18:50:03.220Z,64.30
2018-05-07T18:52:31.520Z,65.00
2018-05-07T18:54:59.037Z,65.00
2018-05-07T18:57:26.577Z,64.10
2018-05-07T18:59:54.089Z,63.80
2018-05-07T19:02:22.949Z,64.70
2018-05-07T19:04:50.458Z,64.70
2018-05-07T19:07:18.001Z,65.40
2018-05-07T19:09:46.293Z,66.60
2018-05-07T19:12:13.841Z,66.50
2018-05-07T19:14:42.153Z,68.50
2018-05-07T19:17:09.714Z,67.70
2018-05-07T19:19:37.257Z,67.60
2018-05-07T19:22:06.460Z,68.60
2018-05-07T19:24:33.991Z,70.10
2018-05-07T19:27:02.414Z,69.00
2018-05-07T19:29:29.957Z,70.20
2018-05-07T19:31:58.233Z,69.80
2018-05-07T19:34:26.532Z,70.20
2018-05-07T19:36:54.060Z,70.10
2018-05-07T19:39:21.602Z,70.80
2018-05-07T19:41:49.125Z,71.50
2018-05-07T19:44:16.661Z,71.80
2018-05-07T19:46:44.948Z,72.90
2018-05-07T19:49:13.245Z,73.90
2018-05-07T19:51:40.771Z,72.90
2018-05-07T19:54:08.386Z,72.80
2018-05-07T19:56:35.904Z,71.70
2018-05-07T19:59:04.212Z,72.60
2018-05-07T20:01:31.735Z,72.40
2018-05-07T20:03:59.293Z,72.40
2018-05-07T20:06:26.812Z,72.40
2018-05-07T20:08:54.330Z,72.90
2018-05-07T20:11:21.865Z,74.10
2018-05-07T20:13:49.404Z,73.70
2018-05-07T20:16:16.940Z,74.30
2018-05-07T20:18:45.219Z,74.40
2018-05-07T20:21:13.516Z,73.80
2018-05-07T20:23:41.800Z,74.60
2018-05-07T20:26:09.341Z,74.70
2018-05-07T20:28:37.625Z,75.80
2018-05-07T20:31:05.934Z,77.10
2018-05-07T20:33:33.508Z,77.10
2018-05-07T20:36:01.076Z,76.00
2018-05-07T20:38:28.594Z,77.40
2018-05-07T20:40:56.136Z,78.00
2018-05-07T20:43:23.653Z,78.40
2018-05-07T20:45:51.192Z,78.50
2018-05-07T20:48:18.712Z,79.40
2018-05-07T20:50:46.443Z,80.00
2018-05-07T20:53:13.968Z,81.20
2018-05-07T20:55:42.300Z,83.50
2018-05-07T20:58:09.842Z,83.30
2018-05-07T21:00:37.355Z,84.70
2018-05-07T21:03:04.892Z,86.20
2018-05-07T21:05:32.428Z,87.70
2018-05-07T21:07:59.974Z,88.50
2018-05-07T21:10:27.558Z,89.00
2018-05-07T21:12:55.100Z,90.10
2018-05-07T21:15:22.616Z,90.50
2018-05-07T21:17:50.154Z,90.90
2018-05-07T21:20:17.669Z,91.60
2018-05-07T21:22:45.968Z,93.20
2018-05-07T21:25:13.489Z,93.20
2018-05-07T21:27:41.031Z,93.00
2018-05-07T21:30:08.543Z,93.00
2018-05-07T21:32:36.828Z,94.00
2018-05-07T21:35:05.236Z,95.10
2018-05-07T21:37:32.744Z,95.00
2018-05-07T21:40:00.281Z,96.10
2018-05-07T21:42:27.800Z,97.30
2018-05-07T21:44:55.342Z,98.50
2018-05-07T21:47:23.668Z,99.90
2018-05-07T21:49:51.214Z,99.90
2018-05-07T21:52:18.792Z,99.90
2018-05-07T21:54:46.329Z,99.90
2018-05-07T21:57:14.613Z,99.90
2018-05-07T21:59:42.153Z,99.90
2018-05-07T22:02:09.730Z,99.90
2018-05-07T22:04:37.228Z,99.90
2018-05-07T22:07:04.792Z,99.90
2018-05-07T22:09:32.353Z,99.90
2018-05-07T22:11:59.867Z,99.90
2018-05-07T22:14:27.408Z,99.90
2018-05-07T22:16:54.925Z,99.90
2018-05-07T22:19:22.464Z,99.90
2018-05-07T22:21:50.745Z,99.90
2018-05-07T22:24:19.047Z,99.90
2018-05-07T22:26:46.563Z,99.90
2018-05-07T22:29:14.839Z,99.90
2018-05-07T22:31:42.377Z,99.90
2018-05-07T22:34:09.907Z,99.90
2018-05-07T22:36:38.313Z,99.90
2018-05-07T22:39:05.924Z,99.90
2018-05-07T22:41:33.543Z,99.90
2018-05-07T22:44:01.069Z,99.90
2018-05-07T22:46:29.369Z,99.90
2018-05-07T22:48:56.908Z,99.90
2018-05-07T22:51:25.220Z,99.90
2018-05-07T22:53:52.740Z,99.90
2018-05-07T22:56:20.276Z,99.90
2018-05-07T22:58:47.796Z,99.90
2018-05-07T23:01:15.335Z,99.90
2018-05-07T23:03:43.636Z,99.90
2018-05-07T23:06:11.173Z,99.90
2018-05-07T23:08:39.461Z,99.90
2018-05-07T23:11:07.763Z,99.90
2018-05-07T23:13:35.336Z,99.90
2018-05-07T23:16:02.867Z,99.90
2018-05-07T23:18:31.183Z,99.90
2018-05-07T23:20:58.735Z,99.90
2018-05-07T23:23:26.314Z,99.90
2018-05-07T23:25:53.852Z,99.90
2018-05-07T23:28:21.429Z,99.90
2018-05-07T23:30:48.949Z,99.90
2018-05-07T23:33:17.251Z,99.90
2018-05-07T23:35:44.770Z,99.90
2018-05-07T23:38:12.308Z,99.90
2018-05-07T23:40:39.826Z,99.90
2018-05-07T23:43:08.133Z,99.90
2018-05-07T23:45:36.859Z,99.90
2018-05-07T23:48:04.400Z,99.90
2018-05-07T23:50:31.929Z,99.90
2018-05-07T23:52:59.471Z,99.90
2018-05-07T23:55:27.793Z,99.90
2018-05-07T23:57:55.333Z,99.90
